createdAt,value
2022-11-23T00:04:08.955Z,99396.44
2022-11-23T00:09:11.349Z,99388.94
2022-11-23T00:14:12.822Z,99390.50
2022-11-23T00:19:14.283Z,99391.72
2022-11-23T00:24:15.932Z,99390.22
2022-11-23T00:29:17.434Z,99404.69
2022-11-23T00:34:18.973Z,99410.66
2022-11-23T00:39:20.538Z,99409.94
2022-11-23T00:44:23.115Z,99425.66
2022-11-23T00:49:24.628Z,99431.03
2022-11-23T00:54:26.141Z,99436.75
2022-11-23T00:59:29.701Z,99439.59
2022-11-23T01:04:31.601Z,99442.13
2022-11-23T01:09:33.291Z,99444.84
2022-11-23T01:14:35.220Z,99451.59
2022-11-23T01:19:36.683Z,99445.63
2022-11-23T01:24:38.205Z,99455.63
2022-11-23T01:29:39.661Z,99448.34
2022-11-23T01:34:41.105Z,99443.25
2022-11-23T01:39:42.606Z,99445.88
2022-11-23T01:44:44.132Z,99437.06
2022-11-23T01:49:51.778Z,99428.13
2022-11-23T01:54:56.985Z,99433.75
2022-11-23T01:59:58.601Z,99438.88
2022-11-23T02:05:01.507Z,99444.75
2022-11-23T02:10:03.338Z,99451.56
2022-11-23T02:15:05.175Z,99461.72
2022-11-23T02:20:12.554Z,99472.75
2022-11-23T02:25:27.514Z,99462.09
2022-11-23T02:30:31.431Z,99473.78
2022-11-23T02:35:34.089Z,99462.94
2022-11-23T02:40:36.842Z,99463.97
2022-11-23T02:45:46.652Z,99479.22
2022-11-23T02:50:48.118Z,99479.53
2022-11-23T02:55:49.571Z,99483.91
2022-11-23T03:00:51.157Z,99474.09
2022-11-23T03:05:52.709Z,99486.41
2022-11-23T03:10:54.231Z,99497.09
2022-11-23T03:15:59.128Z,99501.50
2022-11-23T03:21:05.786Z,99503.19
2022-11-23T03:26:12.637Z,99512.34
2022-11-23T03:31:14.703Z,99509.63
2022-11-23T03:36:16.200Z,99510.28
2022-11-23T03:41:17.659Z,99516.00
2022-11-23T03:46:19.236Z,99503.19
2022-11-23T03:51:20.838Z,99502.34
2022-11-23T03:56:22.361Z,99500.28
2022-11-23T04:01:23.921Z,99506.53
2022-11-23T04:06:25.475Z,99502.69
2022-11-23T04:11:26.989Z,99491.81
2022-11-23T04:16:28.523Z,99497.09
2022-11-23T04:21:29.981Z,99496.91
2022-11-23T04:26:31.495Z,99502.13
2022-11-23T04:31:33.019Z,99509.69
2022-11-23T04:36:34.726Z,99498.31
2022-11-23T04:41:36.191Z,99504.97
2022-11-23T04:46:37.691Z,99497.88
2022-11-23T04:51:39.209Z,99503.75
2022-11-23T04:56:40.687Z,99506.47
2022-11-23T05:01:42.168Z,99510.72
2022-11-23T05:06:43.685Z,99504.06
2022-11-23T05:11:45.209Z,99500.69
2022-11-23T05:16:46.731Z,99503.59
2022-11-23T05:21:48.197Z,99505.28
2022-11-23T05:26:53.379Z,99501.88
2022-11-23T05:31:57.614Z,99495.75
2022-11-23T05:36:59.083Z,99499.97
2022-11-23T05:42:00.673Z,99500.47
2022-11-23T05:47:02.232Z,99506.06
2022-11-23T05:52:03.906Z,99507.25
2022-11-23T05:57:05.365Z,99509.94
2022-11-23T06:02:06.928Z,99514.81
2022-11-23T06:07:08.461Z,99494.16
2022-11-23T06:12:10.005Z,99507.63
2022-11-23T06:17:11.454Z,99505.28
2022-11-23T06:22:13.506Z,99514.16
2022-11-23T06:27:18.226Z,99509.75
2022-11-23T06:32:20.678Z,99517.22
2022-11-23T06:37:22.134Z,99512.34
2022-11-23T06:42:38.395Z,99509.44
2022-11-23T06:47:40.704Z,99509.63
2022-11-23T06:52:42.215Z,99492.84
2022-11-23T06:57:43.661Z,99505.41
2022-11-23T07:02:52.191Z,99513.28
2022-11-23T07:07:53.797Z,99520.63
2022-11-23T07:12:55.346Z,99530.28
2022-11-23T07:17:56.808Z,99542.78
2022-11-23T07:23:07.881Z,99555.78
2022-11-23T07:28:11.895Z,99563.72
2022-11-23T07:33:13.378Z,99566.00
2022-11-23T07:38:14.901Z,99570.63
2022-11-23T07:43:16.460Z,99575.75
2022-11-23T07:48:18.208Z,99589.31
2022-11-23T07:53:20.038Z,99597.75
2022-11-23T07:58:21.484Z,99600.25
2022-11-23T08:03:30.712Z,99606.50
2022-11-23T08:08:32.395Z,99606.66
2022-11-23T08:13:37.323Z,99621.06
2022-11-23T08:18:38.766Z,99610.56
2022-11-23T08:23:40.316Z,99614.25
2022-11-23T08:28:41.819Z,99617.28
2022-11-23T08:33:44.493Z,99618.28
2022-11-23T08:38:46.412Z,99613.88
2022-11-23T08:43:48.494Z,99614.09
2022-11-23T08:48:50.024Z,99612.78
2022-11-23T08:53:51.738Z,99607.78
2022-11-23T08:58:53.253Z,99602.50
2022-11-23T09:03:54.955Z,99615.53
2022-11-23T09:08:57.085Z,99617.69
2022-11-23T09:13:58.826Z,99605.81
2022-11-23T09:19:00.310Z,99611.41
2022-11-23T09:24:02.240Z,99617.13
2022-11-23T09:29:08.299Z,99611.16
2022-11-23T09:34:13.261Z,99614.19
2022-11-23T09:39:14.956Z,99613.81
2022-11-23T09:44:24.431Z,99612.63
2022-11-23T09:49:49.860Z,99598.00
2022-11-23T09:54:56.843Z,99583.16
2022-11-23T10:00:02.151Z,99579.44
2022-11-23T10:05:04.728Z,99571.28
2022-11-23T10:10:36.190Z,99565.66
2022-11-23T10:16:12.263Z,99556.72
2022-11-23T10:21:29.999Z,99552.53
2022-11-23T10:26:38.364Z,99548.22
2022-11-23T10:31:45.002Z,99539.22
2022-11-23T10:36:46.519Z,99538.84
2022-11-23T10:41:48.629Z,99540.41
2022-11-23T10:46:50.177Z,99550.47
2022-11-23T10:51:57.852Z,99549.56
2022-11-23T10:57:00.161Z,99536.72
2022-11-23T11:02:19.142Z,99540.00
2022-11-23T11:07:24.397Z,99538.97
2022-11-23T11:12:27.528Z,99531.00
2022-11-23T11:17:34.585Z,99528.75
2022-11-23T11:22:36.644Z,99528.28
2022-11-23T11:27:38.181Z,99527.59
2022-11-23T11:32:56.048Z,99519.00
2022-11-23T11:38:05.398Z,99520.13
2022-11-23T11:43:37.818Z,99525.06
2022-11-23T11:48:53.140Z,99513.91
2022-11-23T11:54:33.526Z,99523.47
2022-11-23T11:59:45.064Z,99523.69
2022-11-23T12:04:55.707Z,99508.84
2022-11-23T12:10:11.883Z,99511.50
2022-11-23T12:20:57.856Z,99498.38
2022-11-23T12:26:27.132Z,99480.00
2022-11-23T12:31:31.375Z,99474.81
2022-11-23T12:36:45.871Z,99467.31
2022-11-23T12:42:08.861Z,99466.72
2022-11-23T12:47:22.292Z,99472.00
2022-11-23T12:52:48.504Z,99489.09
2022-11-23T12:58:05.096Z,99465.03
2022-11-23T13:03:30.549Z,99470.25
2022-11-23T13:09:03.075Z,99467.09
2022-11-23T13:14:26.355Z,99465.38
2022-11-23T13:19:55.995Z,99466.97
2022-11-23T13:25:12.918Z,99463.41
2022-11-23T13:36:10.464Z,99451.69
2022-11-23T13:41:33.842Z,99453.22
2022-11-23T13:46:36.619Z,99460.38
2022-11-23T13:51:38.703Z,99459.91
2022-11-23T13:56:43.131Z,99451.81
2022-11-23T14:02:12.638Z,99464.41
2022-11-23T14:07:25.391Z,99464.22
2022-11-23T14:12:56.816Z,99460.97
2022-11-23T14:18:35.074Z,99472.34
2022-11-23T14:23:58.181Z,99468.88
2022-11-23T14:29:11.888Z,99470.59
2022-11-23T14:34:31.760Z,99480.63
2022-11-23T14:40:20.172Z,99480.00
2022-11-23T14:45:26.959Z,99477.47
2022-11-23T14:50:29.604Z,99478.25
2022-11-23T14:55:31.272Z,99501.75
2022-11-23T15:00:37.026Z,99490.31
2022-11-23T15:05:39.820Z,99492.75
2022-11-23T15:11:09.835Z,99497.03
2022-11-23T15:16:13.319Z,99495.88
2022-11-23T15:21:28.393Z,99499.19
2022-11-23T15:32:14.373Z,99508.28
2022-11-23T15:37:14.417Z,99518.66
2022-11-23T15:42:18.584Z,99523.13
2022-11-23T15:47:27.651Z,99525.34
2022-11-23T15:52:35.758Z,99541.78
2022-11-23T15:57:37.903Z,99543.16
2022-11-23T16:02:39.701Z,99546.53
2022-11-23T16:08:02.169Z,99547.34
2022-11-23T16:13:06.465Z,99541.88
2022-11-23T16:18:13.922Z,99555.63
2022-11-23T16:23:20.595Z,99554.50
2022-11-23T16:28:29.394Z,99559.72
2022-11-23T16:33:30.944Z,99570.22
2022-11-23T16:38:32.389Z,99562.53
2022-11-23T16:43:33.900Z,99565.00
2022-11-23T16:48:45.989Z,99569.41
2022-11-23T16:54:12.348Z,99572.50
2022-11-23T16:59:16.598Z,99572.72
2022-11-23T17:04:18.167Z,99579.47
2022-11-23T17:09:19.776Z,99588.25
2022-11-23T17:14:28.066Z,99597.03
2022-11-23T17:19:31.461Z,99605.81
2022-11-23T17:24:33.510Z,99608.91
2022-11-23T17:29:40.394Z,99607.41
2022-11-23T17:34:43.329Z,99620.94
2022-11-23T17:39:45.025Z,99624.78
2022-11-23T17:44:46.626Z,99632.13
2022-11-23T17:49:48.144Z,99655.78
2022-11-23T17:54:50.135Z,99644.25
2022-11-23T17:59:52.260Z,99668.09
2022-11-23T18:04:53.887Z,99670.88
2022-11-23T18:09:56.149Z,99667.47
2022-11-23T18:14:57.767Z,99676.78
2022-11-23T18:19:59.305Z,99672.19
2022-11-23T18:25:00.814Z,99684.63
2022-11-23T18:30:02.374Z,99685.84
2022-11-23T18:35:05.094Z,99693.16
2022-11-23T18:40:07.011Z,99709.66
2022-11-23T18:45:08.782Z,99711.00
2022-11-23T18:50:10.319Z,99711.28
2022-11-23T18:55:12.035Z,99713.44
2022-11-23T19:00:15.863Z,99721.78
2022-11-23T19:05:17.529Z,99726.53
2022-11-23T19:10:19.734Z,99734.69
2022-11-23T19:15:21.304Z,99743.69
2022-11-23T19:20:23.701Z,99741.81
2022-11-23T19:25:25.197Z,99758.47
2022-11-23T19:30:27.346Z,99749.13
2022-11-23T19:35:28.840Z,99769.84
2022-11-23T19:40:30.311Z,99779.53
2022-11-23T19:45:31.766Z,99779.03
2022-11-23T19:50:33.236Z,99785.28
2022-11-23T19:55:34.695Z,99792.78
2022-11-23T20:00:37.053Z,99785.34
2022-11-23T20:05:38.753Z,99810.59
2022-11-23T20:10:40.253Z,99812.28
2022-11-23T20:15:43.865Z,99817.00
2022-11-23T20:20:47.580Z,99816.53
2022-11-23T20:25:49.149Z,99833.78
2022-11-23T20:30:51.025Z,99832.09
2022-11-23T20:35:52.669Z,99830.59
2022-11-23T20:40:54.182Z,99833.13
2022-11-23T20:45:58.361Z,99847.19
2022-11-23T20:50:59.900Z,99846.88
2022-11-23T20:56:10.631Z,99859.59
2022-11-23T21:01:14.844Z,99864.00
2022-11-23T21:06:16.594Z,99868.72
2022-11-23T21:11:36.586Z,99875.34
2022-11-23T21:16:58.948Z,99876.03
2022-11-23T21:22:09.218Z,99894.34
2022-11-23T21:27:13.301Z,99906.38
2022-11-23T21:32:14.838Z,99908.91
2022-11-23T21:37:16.457Z,99921.66
2022-11-23T21:42:17.993Z,99944.03
2022-11-23T21:47:19.632Z,99938.78
2022-11-23T21:52:21.151Z,99943.19
2022-11-23T21:57:22.664Z,99943.53
2022-11-23T22:02:24.233Z,99937.91
2022-11-23T22:07:25.798Z,99944.56
2022-11-23T22:12:27.405Z,99955.19
2022-11-23T22:17:28.894Z,99960.97
2022-11-23T22:22:30.423Z,99967.09
2022-11-23T22:27:32.035Z,99967.44
2022-11-23T22:32:33.540Z,99956.59
2022-11-23T22:37:35.035Z,99974.22
2022-11-23T22:42:36.536Z,99971.69
2022-11-23T22:47:38.213Z,99975.56
2022-11-23T22:52:39.702Z,99985.56
2022-11-23T22:57:41.186Z,99996.59
2022-11-23T23:02:42.769Z,99995.59
2022-11-23T23:07:44.449Z,99999.31
2022-11-23T23:12:46.021Z,99999.50
2022-11-23T23:17:47.737Z,100011.88
2022-11-23T23:22:49.282Z,100006.75
2022-11-23T23:27:50.793Z,100014.91
2022-11-23T23:32:54.416Z,100024.06
2022-11-23T23:37:55.908Z,100026.63
2022-11-23T23:43:00.468Z,100024.44
2022-11-23T23:48:01.967Z,100027.84
2022-11-23T23:53:03.472Z,100033.09
2022-11-23T23:58:04.962Z,100030.22
